createdAt,value
2017-05-19T00:00:47.054Z,17.06
2017-05-19T00:01:47.090Z,16.99
2017-05-19T00:02:47.016Z,16.98
2017-05-19T00:03:46.994Z,17.03
2017-05-19T00:04:46.976Z,17.05
2017-05-19T00:05:46.951Z,17.1
2017-05-19T00:06:46.941Z,17.07
2017-05-19T00:07:46.913Z,17.02
2017-05-19T00:08:46.596Z,17.12
2017-05-19T00:09:46.970Z,16.99
2017-05-19T00:10:46.851Z,16.99
2017-05-19T00:11:46.828Z,17.03
2017-05-19T00:12:46.811Z,16.99
2017-05-19T00:13:46.486Z,17
2017-05-19T00:14:46.766Z,17.02
2017-05-19T00:15:46.747Z,17.02
2017-05-19T00:16:46.780Z,17.05
2017-05-19T00:17:46.708Z,16.95
2017-05-19T00:18:46.391Z,16.95
2017-05-19T00:19:46.670Z,16.91
2017-05-19T00:20:46.701Z,16.92
2017-05-19T00:21:46.620Z,16.9
2017-05-19T00:22:46.611Z,16.96
2017-05-19T00:23:46.598Z,16.88
2017-05-19T00:24:46.573Z,16.92
2017-05-19T00:25:46.545Z,16.88
2017-05-19T00:26:46.576Z,16.98
2017-05-19T00:27:46.510Z,16.88
2017-05-19T00:28:46.546Z,16.9
2017-05-19T00:29:46.466Z,16.88
2017-05-19T00:30:46.457Z,16.88
2017-05-19T00:31:46.429Z,16.9
2017-05-19T00:32:46.413Z,16.88
2017-05-19T00:33:46.382Z,16.85
2017-05-19T00:34:46.366Z,16.85
2017-05-19T00:35:46.355Z,16.88
2017-05-19T00:36:46.326Z,16.85
2017-05-19T00:37:46.306Z,16.91
2017-05-19T00:38:46.285Z,16.88
2017-05-19T00:39:45.960Z,16.87
2017-05-19T00:40:46.247Z,16.87
2017-05-19T00:41:46.227Z,16.9
2017-05-19T00:42:46.205Z,16.88
2017-05-19T00:43:46.187Z,16.88
2017-05-19T00:44:46.162Z,16.9
2017-05-19T00:45:46.145Z,16.92
2017-05-19T00:46:46.127Z,16.96
2017-05-19T00:47:45.497Z,16.87
2017-05-19T00:48:46.087Z,16.88
2017-05-19T00:49:46.066Z,16.9
2017-05-19T00:50:46.038Z,16.91
2017-05-19T00:51:46.020Z,16.9
2017-05-19T00:52:46.003Z,16.96
2017-05-19T00:53:45.681Z,16.92
2017-05-19T00:54:46.265Z,16.88
2017-05-19T00:55:45.985Z,16.92
2017-05-19T00:56:45.927Z,16.84
2017-05-19T00:57:45.905Z,16.9
2017-05-19T00:58:45.891Z,16.81
2017-05-19T00:59:45.868Z,16.81
2017-05-19T01:00:45.840Z,16.88
2017-05-19T01:01:45.821Z,16.88
2017-05-19T01:02:45.854Z,16.91
2017-05-19T01:03:45.781Z,16.91
2017-05-19T01:04:45.764Z,16.88
2017-05-19T01:05:45.729Z,16.8
2017-05-19T01:06:45.424Z,16.9
2017-05-19T01:07:45.707Z,16.84
2017-05-19T01:08:45.682Z,16.88
2017-05-19T01:09:45.657Z,16.9
2017-05-19T01:10:45.644Z,16.87
2017-05-19T01:11:45.625Z,16.88
2017-05-19T01:12:45.598Z,16.9
2017-05-19T01:13:45.625Z,16.82
2017-05-19T01:14:45.559Z,16.88
2017-05-19T01:15:45.538Z,16.92
2017-05-19T01:16:45.531Z,16.91
2017-05-19T01:17:45.500Z,16.81
2017-05-19T01:18:45.472Z,16.87
2017-05-19T01:19:45.466Z,16.84
2017-05-19T01:20:45.444Z,16.75
2017-05-19T01:21:45.427Z,16.75
2017-05-19T01:22:45.445Z,16.88
2017-05-19T01:23:45.375Z,16.78
2017-05-19T01:24:45.357Z,16.8
2017-05-19T01:25:45.334Z,16.8
2017-05-19T01:26:45.315Z,16.72
2017-05-19T01:27:45.295Z,16.81
2017-05-19T01:28:45.282Z,16.92
2017-05-19T01:29:45.260Z,16.77
2017-05-19T01:30:44.947Z,16.72
2017-05-19T01:31:45.219Z,16.81
2017-05-19T01:32:45.195Z,16.81
2017-05-19T01:33:45.175Z,16.73
2017-05-19T01:34:45.147Z,16.77
2017-05-19T01:35:45.135Z,16.78
2017-05-19T01:36:45.109Z,16.88
2017-05-19T01:37:44.789Z,16.95
2017-05-19T01:38:45.069Z,16.77
2017-05-19T01:39:45.053Z,16.92
2017-05-19T01:40:45.034Z,16.87
2017-05-19T01:41:45.013Z,16.9
2017-05-19T01:42:44.988Z,16.88
2017-05-19T01:43:44.977Z,16.8
2017-05-19T01:44:44.954Z,16.85
2017-05-19T01:45:44.932Z,16.91
2017-05-19T01:46:44.909Z,16.91
2017-05-19T01:47:44.896Z,16.8
2017-05-19T01:48:44.874Z,16.85
2017-05-19T01:49:44.901Z,16.87
2017-05-19T01:50:44.826Z,16.88
2017-05-19T01:51:44.854Z,16.88
2017-05-19T01:52:44.807Z,16.91
2017-05-19T01:53:44.766Z,16.9
2017-05-19T01:54:44.751Z,16.88
2017-05-19T01:55:44.727Z,16.87
2017-05-19T01:56:44.716Z,16.91
2017-05-19T01:57:44.391Z,16.92
2017-05-19T01:58:44.670Z,16.88
2017-05-19T01:59:44.648Z,16.88
2017-05-19T02:00:44.629Z,16.92
2017-05-19T02:01:44.606Z,16.91
2017-05-19T02:02:44.585Z,16.91
2017-05-19T02:03:44.597Z,16.95
2017-05-19T02:04:44.550Z,16.96
2017-05-19T02:05:44.529Z,16.96
2017-05-19T02:06:44.514Z,16.95
2017-05-19T02:07:44.493Z,16.88
2017-05-19T02:08:44.476Z,16.92
2017-05-19T02:09:44.494Z,16.91
2017-05-19T02:10:44.479Z,16.91
2017-05-19T02:11:44.462Z,16.9
2017-05-19T02:12:44.383Z,16.9
2017-05-19T02:13:44.367Z,16.9
2017-05-19T02:14:44.347Z,16.87
2017-05-19T02:15:44.328Z,16.82
2017-05-19T02:16:44.000Z,16.87
2017-05-19T02:17:44.295Z,16.84
2017-05-19T02:18:44.276Z,16.84
2017-05-19T02:19:44.257Z,16.82
2017-05-19T02:20:44.235Z,16.9
2017-05-19T02:21:44.202Z,16.81
2017-05-19T02:22:44.186Z,16.92
2017-05-19T02:23:44.169Z,16.78
2017-05-19T02:24:44.147Z,16.88
2017-05-19T02:25:44.123Z,16.8
2017-05-19T02:26:44.155Z,16.88
2017-05-19T02:27:44.085Z,16.82
2017-05-19T02:28:44.110Z,16.85
2017-05-19T02:29:44.038Z,16.78
2017-05-19T02:30:44.025Z,16.82
2017-05-19T02:31:44.008Z,16.78
2017-05-19T02:32:43.978Z,16.78
2017-05-19T02:33:43.663Z,16.73
2017-05-19T02:34:43.944Z,16.7
2017-05-19T02:35:43.919Z,16.69
2017-05-19T02:36:43.948Z,16.73
2017-05-19T02:37:43.908Z,16.62
2017-05-19T02:38:43.867Z,16.67
2017-05-19T02:39:43.837Z,16.62
2017-05-19T02:40:44.080Z,16.6
2017-05-19T02:41:43.805Z,16.57
2017-05-19T02:42:43.782Z,16.6
2017-05-19T02:43:43.759Z,16.47
2017-05-19T02:44:43.746Z,16.52
2017-05-19T02:45:43.719Z,16.52
2017-05-19T02:46:43.700Z,16.52
2017-05-19T02:47:43.691Z,16.51
2017-05-19T02:48:43.661Z,16.51
2017-05-19T02:49:43.637Z,16.54
2017-05-19T02:50:43.864Z,16.42
2017-05-19T02:51:43.596Z,16.45
2017-05-19T02:52:43.632Z,16.47
2017-05-19T02:53:43.258Z,16.45
2017-05-19T02:54:43.233Z,16.45
2017-05-19T02:55:43.520Z,16.52
2017-05-19T02:56:43.545Z,16.52
2017-05-19T02:57:43.482Z,16.5
2017-05-19T02:58:43.460Z,16.5
2017-05-19T02:59:43.434Z,16.57
2017-05-19T03:00:43.414Z,16.51
2017-05-19T03:01:43.459Z,16.51
2017-05-19T03:02:43.380Z,16.55
2017-05-19T03:03:43.417Z,16.47
2017-05-19T03:04:43.336Z,16.59
2017-05-19T03:05:43.374Z,16.5
2017-05-19T03:06:43.293Z,16.52
2017-05-19T03:07:43.271Z,16.51
2017-05-19T03:08:43.251Z,16.52
2017-05-19T03:09:43.230Z,16.47
2017-05-19T03:10:42.910Z,16.45
2017-05-19T03:11:43.203Z,16.47
2017-05-19T03:12:43.186Z,16.51
2017-05-19T03:13:43.156Z,16.52
2017-05-19T03:14:42.873Z,16.54
2017-05-19T03:15:43.131Z,16.54
2017-05-19T03:16:43.097Z,16.6
2017-05-19T03:17:43.076Z,16.6
2017-05-19T03:18:43.055Z,16.62
2017-05-19T03:19:42.724Z,16.51
2017-05-19T03:20:43.010Z,16.63
2017-05-19T03:21:42.985Z,16.6
2017-05-19T03:22:42.664Z,16.67
2017-05-19T03:23:42.956Z,16.6
2017-05-19T03:24:42.929Z,16.63
2017-05-19T03:25:42.912Z,16.66
2017-05-19T03:26:42.885Z,16.62
2017-05-19T03:27:42.574Z,16.63
2017-05-19T03:28:42.840Z,16.73
2017-05-19T03:29:43.081Z,16.69
2017-05-19T03:30:42.807Z,16.7
2017-05-19T03:31:42.481Z,16.69
2017-05-19T03:32:42.765Z,16.78
2017-05-19T03:33:42.746Z,16.69
2017-05-19T03:34:42.723Z,16.81
2017-05-19T03:35:42.710Z,16.82
2017-05-19T03:36:42.682Z,16.78
2017-05-19T03:37:42.667Z,16.78
2017-05-19T03:38:42.644Z,16.78
2017-05-19T03:39:42.622Z,16.73
2017-05-19T03:40:42.607Z,16.82
2017-05-19T03:41:42.630Z,16.78
2017-05-19T03:42:42.562Z,16.75
2017-05-19T03:43:42.538Z,16.78
2017-05-19T03:44:42.517Z,16.73
2017-05-19T03:45:42.196Z,16.78
2017-05-19T03:46:42.480Z,16.73
2017-05-19T03:47:42.460Z,16.72
2017-05-19T03:48:42.449Z,16.87
2017-05-19T03:49:42.419Z,16.75
2017-05-19T03:50:42.404Z,16.77
2017-05-19T03:51:42.383Z,16.72
2017-05-19T03:52:42.359Z,16.78
2017-05-19T03:53:42.336Z,16.72
2017-05-19T03:54:42.337Z,16.75
2017-05-19T03:55:42.299Z,16.84
2017-05-19T03:56:42.026Z,16.91
2017-05-19T03:57:42.259Z,16.8
2017-05-19T03:58:41.938Z,16.75
2017-05-19T03:59:42.213Z,16.85
2017-05-19T04:00:42.199Z,16.8
2017-05-19T04:01:42.190Z,16.91
2017-05-19T04:02:42.212Z,16.91
2017-05-19T04:03:42.140Z,16.96
2017-05-19T04:04:42.121Z,16.98
2017-05-19T04:05:42.097Z,16.98
2017-05-19T04:06:42.076Z,16.96
2017-05-19T04:07:42.109Z,17.02
2017-05-19T04:08:42.041Z,17.02
2017-05-19T04:09:42.019Z,17.03
2017-05-19T04:10:41.994Z,17.1
2017-05-19T04:11:42.026Z,17.1
2017-05-19T04:12:41.959Z,17.12
2017-05-19T04:13:41.630Z,17.1
2017-05-19T04:14:41.319Z,17.1
2017-05-19T04:15:41.909Z,17.21
2017-05-19T04:16:41.926Z,17.27
2017-05-19T04:17:41.864Z,17.27
2017-05-19T04:18:41.831Z,17.35
2017-05-19T04:19:41.816Z,17.28
2017-05-19T04:20:41.797Z,17.33
2017-05-19T04:21:41.776Z,17.38
2017-05-19T04:22:41.757Z,17.3
2017-05-19T04:23:41.848Z,17.42
2017-05-19T04:24:41.716Z,17.42
2017-05-19T04:25:41.698Z,17.43
2017-05-19T04:26:41.379Z,17.42
2017-05-19T04:27:41.664Z,17.43
2017-05-19T04:28:41.648Z,17.46
2017-05-19T04:29:41.616Z,17.46
2017-05-19T04:30:41.599Z,17.42
2017-05-19T04:31:41.578Z,17.4
2017-05-19T04:32:41.261Z,17.43
2017-05-19T04:33:41.543Z,17.46
2017-05-19T04:34:41.518Z,17.39
2017-05-19T04:35:41.510Z,17.45
2017-05-19T04:36:41.475Z,17.42
2017-05-19T04:37:41.466Z,17.43
2017-05-19T04:38:41.449Z,17.42
2017-05-19T04:39:41.421Z,17.36
2017-05-19T04:40:41.404Z,17.36
2017-05-19T04:41:41.380Z,17.36
2017-05-19T04:42:41.365Z,17.38
2017-05-19T04:43:41.342Z,17.51
2017-05-19T04:44:41.322Z,17.42
2017-05-19T04:45:41.306Z,17.4
2017-05-19T04:46:41.278Z,17.38
2017-05-19T04:47:41.260Z,17.45
2017-05-19T04:48:41.237Z,17.45
2017-05-19T04:49:41.220Z,17.4
2017-05-19T04:50:41.208Z,17.46
2017-05-19T04:51:41.183Z,17.53
2017-05-19T04:52:41.169Z,17.45
2017-05-19T04:53:41.150Z,17.51
2017-05-19T04:54:41.121Z,17.49
2017-05-19T04:55:41.108Z,17.38
2017-05-19T04:56:41.077Z,17.36
2017-05-19T04:57:41.060Z,17.36
2017-05-19T04:58:41.037Z,17.4
2017-05-19T04:59:41.021Z,17.46
2017-05-19T05:00:41.003Z,17.38
2017-05-19T05:01:40.987Z,17.42
2017-05-19T05:02:40.965Z,17.47
2017-05-19T05:03:40.940Z,17.54
2017-05-19T05:04:40.926Z,17.53
2017-05-19T05:05:40.905Z,17.58
2017-05-19T05:06:40.581Z,17.57
2017-05-19T05:07:40.870Z,17.62
2017-05-19T05:08:40.549Z,17.57
2017-05-19T05:09:40.824Z,17.57
2017-05-19T05:10:40.803Z,17.58
2017-05-19T05:11:40.779Z,17.63
2017-05-19T05:12:40.773Z,17.66
2017-05-19T05:13:40.738Z,17.63
2017-05-19T05:14:40.729Z,17.58
2017-05-19T05:15:40.702Z,17.51
2017-05-19T05:16:40.693Z,17.65
2017-05-19T05:17:40.661Z,17.51
2017-05-19T05:18:40.648Z,17.54
2017-05-19T05:19:40.872Z,17.54
2017-05-19T05:20:40.600Z,17.62
2017-05-19T05:21:40.583Z,17.55
2017-05-19T05:22:40.568Z,17.54
2017-05-19T05:23:40.548Z,17.47
2017-05-19T05:24:40.529Z,17.47
2017-05-19T05:25:40.502Z,17.47
2017-05-19T05:26:40.505Z,17.47
2017-05-19T05:27:40.484Z,17.58
2017-05-19T05:28:40.450Z,17.49
2017-05-19T05:29:40.421Z,17.53
2017-05-19T05:30:40.404Z,17.43
2017-05-19T05:31:40.093Z,17.43
2017-05-19T05:32:40.376Z,17.36
2017-05-19T05:33:40.348Z,17.53
2017-05-19T05:34:40.378Z,17.49
2017-05-19T05:35:40.308Z,17.62
2017-05-19T05:36:40.286Z,17.55
2017-05-19T05:37:40.268Z,17.49
2017-05-19T05:38:39.959Z,17.46
2017-05-19T05:39:40.230Z,17.47
2017-05-19T05:40:40.261Z,17.49
2017-05-19T05:41:40.194Z,17.42
2017-05-19T05:42:40.178Z,17.42
2017-05-19T05:43:40.159Z,17.39
2017-05-19T05:44:40.137Z,17.43
2017-05-19T05:45:40.114Z,17.43
2017-05-19T05:46:40.093Z,17.39
2017-05-19T05:47:40.066Z,17.42
2017-05-19T05:48:40.044Z,17.46
2017-05-19T05:49:40.025Z,17.39
2017-05-19T05:50:40.057Z,17.38
2017-05-19T05:51:40.018Z,17.35
2017-05-19T05:52:40.019Z,17.35
2017-05-19T05:53:39.998Z,17.33
2017-05-19T05:54:39.926Z,17.4
2017-05-19T05:55:39.915Z,17.33
2017-05-19T05:56:39.893Z,17.27
2017-05-19T05:57:39.863Z,17.28
2017-05-19T05:58:39.856Z,17.32
2017-05-19T05:59:39.830Z,17.28
2017-05-19T06:00:39.815Z,17.36
2017-05-19T06:01:39.782Z,17.4
2017-05-19T06:02:40.019Z,17.39
2017-05-19T06:03:39.750Z,17.28
2017-05-19T06:04:39.730Z,17.38
2017-05-19T06:05:39.703Z,17.39
2017-05-19T06:06:39.688Z,17.39
2017-05-19T06:07:39.669Z,17.38
2017-05-19T06:08:39.653Z,17.28
2017-05-19T06:09:39.641Z,17.4
2017-05-19T06:10:39.618Z,17.36
2017-05-19T06:11:39.594Z,17.33
2017-05-19T06:12:39.563Z,17.3
2017-05-19T06:13:39.548Z,17.39
2017-05-19T06:14:39.525Z,17.32
2017-05-19T06:15:39.507Z,17.28
2017-05-19T06:16:39.486Z,17.28
2017-05-19T06:17:39.467Z,17.36
2017-05-19T06:18:39.460Z,17.3
2017-05-19T06:19:39.433Z,17.32
2017-05-19T06:20:39.408Z,17.3
2017-05-19T06:21:39.386Z,17.38
2017-05-19T06:22:39.367Z,17.3
2017-05-19T06:23:39.042Z,17.3
2017-05-19T06:24:39.325Z,17.32
2017-05-19T06:25:39.303Z,17.33
2017-05-19T06:26:39.284Z,17.36
2017-05-19T06:27:39.261Z,17.35
2017-05-19T06:28:39.244Z,17.32
2017-05-19T06:29:38.928Z,17.3
2017-05-19T06:30:39.205Z,17.28
2017-05-19T06:31:39.190Z,17.43
2017-05-19T06:32:39.171Z,17.4
2017-05-19T06:33:39.139Z,17.39
2017-05-19T06:34:39.132Z,17.46
2017-05-19T06:35:39.111Z,17.46
2017-05-19T06:36:39.084Z,17.47
2017-05-19T06:37:39.070Z,17.45
2017-05-19T06:38:39.051Z,17.53
2017-05-19T06:39:39.024Z,17.45
2017-05-19T06:40:38.708Z,17.57
2017-05-19T06:41:38.984Z,17.53
2017-05-19T06:42:38.966Z,17.55
2017-05-19T06:43:38.643Z,17.58
2017-05-19T06:44:38.978Z,17.66
2017-05-19T06:45:38.906Z,17.68
2017-05-19T06:46:38.603Z,17.73
2017-05-19T06:47:38.876Z,17.7
2017-05-19T06:48:38.853Z,17.73
2017-05-19T06:49:38.529Z,17.8
2017-05-19T06:50:38.806Z,17.76
2017-05-19T06:51:38.784Z,17.8
2017-05-19T06:52:38.769Z,17.74
2017-05-19T06:53:38.747Z,17.84
2017-05-19T06:54:38.727Z,17.79
2017-05-19T06:55:38.711Z,17.86
2017-05-19T06:56:38.691Z,17.84
2017-05-19T06:57:38.714Z,17.89
2017-05-19T06:58:38.646Z,17.79
2017-05-19T06:59:38.636Z,17.79
2017-05-19T07:00:38.610Z,17.86
2017-05-19T07:01:38.592Z,17.94
2017-05-19T07:02:38.574Z,17.92
2017-05-19T07:03:38.560Z,17.96
2017-05-19T07:04:38.541Z,17.95
2017-05-19T07:05:38.514Z,17.99
2017-05-19T07:06:38.242Z,17.99
2017-05-19T07:07:38.470Z,17.96
2017-05-19T07:08:38.446Z,18.02
2017-05-19T07:09:38.439Z,17.99
2017-05-19T07:10:38.414Z,18.02
2017-05-19T07:11:38.397Z,18.11
2017-05-19T07:12:38.375Z,18.09
2017-05-19T07:13:38.356Z,18.05
2017-05-19T07:14:38.037Z,18.09
2017-05-19T07:15:38.317Z,18.14
2017-05-19T07:16:38.294Z,18.14
2017-05-19T07:17:38.274Z,18.2
2017-05-19T07:18:37.953Z,18.26
2017-05-19T07:19:38.233Z,18.29
2017-05-19T07:20:38.210Z,18.25
2017-05-19T07:21:38.204Z,18.36
2017-05-19T07:22:38.179Z,18.32
2017-05-19T07:23:38.166Z,18.36
2017-05-19T07:24:38.202Z,18.5
2017-05-19T07:25:38.124Z,18.59
2017-05-19T07:26:38.093Z,18.54
2017-05-19T07:27:38.141Z,18.64
2017-05-19T07:28:38.072Z,18.57
2017-05-19T07:29:38.052Z,18.65
2017-05-19T07:30:38.029Z,18.65
2017-05-19T07:31:38.255Z,18.66
2017-05-19T07:32:38.138Z,18.53
2017-05-19T07:33:37.965Z,18.46
2017-05-19T07:34:37.947Z,18.38
2017-05-19T07:35:37.928Z,18.41
2017-05-19T07:36:37.915Z,18.38
2017-05-19T07:37:37.890Z,18.49
2017-05-19T07:38:37.879Z,18.36
2017-05-19T07:39:37.866Z,18.29
2017-05-19T07:40:37.834Z,18.23
2017-05-19T07:41:37.817Z,18.23
2017-05-19T07:42:37.799Z,18.2
2017-05-19T07:43:37.786Z,18.13
2017-05-19T07:44:37.759Z,18.07
2017-05-19T07:45:37.744Z,18.09
2017-05-19T07:46:37.431Z,18.04
2017-05-19T07:47:37.395Z,18.02
2017-05-19T07:48:37.380Z,17.98
2017-05-19T07:49:37.716Z,17.8
2017-05-19T07:50:37.335Z,17.74
2017-05-19T07:51:37.626Z,17.57
2017-05-19T07:52:37.603Z,17.55
2017-05-19T07:53:37.582Z,17.47
2017-05-19T07:54:37.561Z,17.53
2017-05-19T07:55:37.540Z,17.46
2017-05-19T07:56:37.579Z,17.43
2017-05-19T07:57:37.507Z,17.35
2017-05-19T07:58:37.492Z,17.38
2017-05-19T07:59:37.469Z,17.3
2017-05-19T08:00:37.449Z,17.32
2017-05-19T08:01:37.477Z,17.22
2017-05-19T08:02:37.420Z,17.3
2017-05-19T08:03:37.390Z,17.21
2017-05-19T08:04:37.076Z,17.17
2017-05-19T08:05:37.047Z,17.07
2017-05-19T08:06:37.328Z,17.17
2017-05-19T08:07:37.009Z,17.15
2017-05-19T08:08:36.986Z,17.12
2017-05-19T08:09:37.273Z,17.02
2017-05-19T08:10:37.253Z,16.96
2017-05-19T08:11:37.238Z,16.87
2017-05-19T08:12:37.216Z,16.91
2017-05-19T08:13:37.201Z,16.95
2017-05-19T08:14:37.178Z,16.88
2017-05-19T08:15:37.145Z,16.88
2017-05-19T08:16:37.130Z,16.85
2017-05-19T08:17:37.111Z,16.91
2017-05-19T08:18:37.098Z,16.92
2017-05-19T08:19:37.080Z,16.88
2017-05-19T08:20:36.751Z,16.75
2017-05-19T08:21:37.040Z,16.77
2017-05-19T08:22:37.010Z,16.75
2017-05-19T08:23:36.997Z,16.78
2017-05-19T08:24:36.977Z,16.66
2017-05-19T08:25:36.955Z,16.69
2017-05-19T08:26:36.932Z,16.67
2017-05-19T08:27:36.918Z,16.62
2017-05-19T08:28:36.891Z,16.62
2017-05-19T08:29:36.616Z,16.5
2017-05-19T08:30:36.854Z,16.55
2017-05-19T08:31:36.846Z,16.44
2017-05-19T08:32:36.808Z,16.51
2017-05-19T08:33:36.192Z,16.44
2017-05-19T08:34:36.784Z,16.48
2017-05-19T08:35:36.757Z,16.42
2017-05-19T08:36:36.731Z,16.42
2017-05-19T08:37:36.712Z,16.45
2017-05-19T08:38:36.691Z,16.45
2017-05-19T08:39:36.680Z,16.5
2017-05-19T08:40:36.653Z,16.45
2017-05-19T08:41:36.625Z,16.47
2017-05-19T08:42:36.308Z,16.52
2017-05-19T08:43:36.602Z,16.5
2017-05-19T08:44:36.578Z,16.52
2017-05-19T08:45:36.559Z,16.47
2017-05-19T08:46:36.531Z,16.45
2017-05-19T08:47:36.565Z,16.48
2017-05-19T08:48:36.499Z,16.47
2017-05-19T08:49:36.175Z,16.45
2017-05-19T08:50:36.196Z,16.42
2017-05-19T08:51:36.446Z,16.37
2017-05-19T08:52:36.419Z,16.34
2017-05-19T08:53:36.393Z,16.32
2017-05-19T08:54:36.371Z,16.22
2017-05-19T08:55:36.349Z,16.29
2017-05-19T08:56:36.335Z,16.26
2017-05-19T08:57:36.310Z,16.3
2017-05-19T08:58:36.285Z,16.25
2017-05-19T08:59:36.269Z,16.33
2017-05-19T09:00:36.257Z,16.23
2017-05-19T09:01:36.221Z,16.29
2017-05-19T09:02:36.206Z,16.27
2017-05-19T09:03:36.186Z,16.29
2017-05-19T09:04:36.512Z,16.23
2017-05-19T09:05:35.843Z,16.25
2017-05-19T09:06:36.168Z,16.26
2017-05-19T09:07:36.124Z,16.17
2017-05-19T09:08:36.101Z,16.26
2017-05-19T09:09:35.775Z,16.26
2017-05-19T09:10:36.051Z,16.22
2017-05-19T09:11:35.723Z,16.23
2017-05-19T09:12:36.004Z,16.25
2017-05-19T09:13:35.998Z,16.17
2017-05-19T09:14:35.959Z,16.18
2017-05-19T09:15:35.951Z,16.17
2017-05-19T09:16:35.637Z,16.08
2017-05-19T09:17:35.953Z,16.26
2017-05-19T09:18:35.900Z,16.25
2017-05-19T09:19:35.862Z,16.13
2017-05-19T09:20:35.869Z,16.07
2017-05-19T09:21:35.822Z,16.07
2017-05-19T09:22:35.813Z,16.11
2017-05-19T09:23:35.792Z,16.08
2017-05-19T09:24:35.787Z,16.11
2017-05-19T09:25:35.845Z,16.11
2017-05-19T09:26:35.735Z,16.08
2017-05-19T09:27:35.716Z,16.1
2017-05-19T09:28:35.712Z,16.14
2017-05-19T09:29:35.661Z,16.22
2017-05-19T09:30:35.722Z,16.16
2017-05-19T09:31:35.633Z,16.14
2017-05-19T09:32:35.647Z,16.17
2017-05-19T09:33:35.586Z,16.18
2017-05-19T09:34:35.576Z,16.14
2017-05-19T09:35:35.549Z,16.18
2017-05-19T09:36:35.550Z,16.22
2017-05-19T09:37:35.509Z,16.22
2017-05-19T09:38:35.492Z,16.08
2017-05-19T09:39:35.472Z,16.13
2017-05-19T09:40:35.466Z,16.14
2017-05-19T09:41:35.425Z,16.14
2017-05-19T09:42:34.819Z,16.1
2017-05-19T09:43:35.098Z,16.07
2017-05-19T09:44:35.386Z,16.1
2017-05-19T09:45:35.337Z,16.13
2017-05-19T09:46:35.029Z,16.06
2017-05-19T09:47:35.309Z,16.13
2017-05-19T09:48:35.297Z,16.16
2017-05-19T09:49:35.306Z,16.26
2017-05-19T09:50:35.269Z,16.23
2017-05-19T09:51:35.240Z,16.26
2017-05-19T09:52:35.232Z,16.34
2017-05-19T09:53:35.220Z,16.27
2017-05-19T09:54:35.230Z,16.27
2017-05-19T09:55:35.154Z,16.25
2017-05-19T09:56:35.122Z,16.26
2017-05-19T09:57:35.166Z,16.33
2017-05-19T09:58:35.111Z,16.37
2017-05-19T09:59:34.789Z,16.42
2017-05-19T10:00:35.068Z,16.47
2017-05-19T10:01:35.056Z,16.44
2017-05-19T10:02:35.022Z,16.47
2017-05-19T10:03:34.710Z,16.44
2017-05-19T10:04:34.986Z,16.52
2017-05-19T10:05:34.969Z,16.45
2017-05-19T10:06:34.919Z,16.48
2017-05-19T10:07:34.898Z,16.59
2017-05-19T10:08:34.887Z,16.57
2017-05-19T10:09:34.870Z,16.65
2017-05-19T10:10:34.848Z,16.65
2017-05-19T10:11:34.528Z,16.6
2017-05-19T10:12:34.814Z,16.62
2017-05-19T10:13:34.788Z,16.65
2017-05-19T10:14:34.758Z,16.6
2017-05-19T10:15:34.445Z,16.63
2017-05-19T10:16:34.729Z,16.62
2017-05-19T10:17:34.400Z,16.72
2017-05-19T10:18:34.692Z,16.75
2017-05-19T10:19:34.667Z,16.7
2017-05-19T10:20:34.646Z,16.66
2017-05-19T10:21:34.625Z,16.72
2017-05-19T10:22:34.619Z,16.69
2017-05-19T10:23:34.293Z,16.69
2017-05-19T10:24:34.622Z,16.66
2017-05-19T10:25:34.549Z,16.78
2017-05-19T10:26:34.530Z,16.91
2017-05-19T10:27:34.515Z,16.84
2017-05-19T10:28:34.501Z,16.96
2017-05-19T10:29:34.175Z,16.95
2017-05-19T10:30:34.192Z,17.1
2017-05-19T10:31:34.430Z,17.09
2017-05-19T10:32:34.416Z,17.18
2017-05-19T10:33:34.405Z,17.25
2017-05-19T10:34:34.376Z,17.35
2017-05-19T10:35:34.417Z,17.45
2017-05-19T10:36:34.336Z,17.46
2017-05-19T10:37:34.323Z,17.45
2017-05-19T10:38:34.294Z,17.43
2017-05-19T10:39:34.276Z,17.43
2017-05-19T10:40:34.307Z,17.4
2017-05-19T10:41:34.244Z,17.45
2017-05-19T10:42:34.238Z,17.35
2017-05-19T10:43:34.209Z,17.4
2017-05-19T10:44:34.233Z,17.3
2017-05-19T10:45:34.221Z,17.39
2017-05-19T10:46:33.841Z,17.42
2017-05-19T10:47:34.136Z,17.43
2017-05-19T10:48:34.105Z,17.28
2017-05-19T10:49:34.078Z,17.39
2017-05-19T10:50:34.131Z,17.32
2017-05-19T10:51:33.748Z,17.39
2017-05-19T10:52:34.027Z,17.32
2017-05-19T10:53:33.750Z,17.39
2017-05-19T10:54:33.990Z,17.42
2017-05-19T10:55:33.971Z,17.3
2017-05-19T10:56:33.981Z,17.42
2017-05-19T10:57:33.927Z,17.35
2017-05-19T10:58:33.918Z,17.39
2017-05-19T10:59:33.890Z,17.27
2017-05-19T11:00:33.877Z,17.39
2017-05-19T11:01:33.872Z,17.36
2017-05-19T11:02:33.896Z,17.28
2017-05-19T11:03:33.527Z,17.35
2017-05-19T11:04:33.818Z,17.28
2017-05-19T11:05:33.801Z,17.33
2017-05-19T11:06:33.783Z,17.27
2017-05-19T11:07:33.740Z,17.3
2017-05-19T11:08:33.422Z,17.33
2017-05-19T11:09:33.425Z,17.28
2017-05-19T11:10:33.698Z,17.18
2017-05-19T11:11:33.671Z,17.1
2017-05-19T11:12:33.640Z,17.1
2017-05-19T11:13:33.929Z,17.07
2017-05-19T11:14:33.622Z,16.95
2017-05-19T11:15:33.576Z,17
2017-05-19T11:16:33.586Z,16.9
2017-05-19T11:17:33.558Z,16.91
2017-05-19T11:18:33.604Z,16.95
2017-05-19T11:19:33.505Z,16.9
2017-05-19T11:20:33.483Z,16.75
2017-05-19T11:21:33.475Z,16.85
2017-05-19T11:22:33.139Z,16.66
2017-05-19T11:23:33.417Z,16.63
2017-05-19T11:24:33.418Z,16.57
2017-05-19T11:25:33.391Z,16.48
2017-05-19T11:26:33.123Z,16.52
2017-05-19T11:27:33.352Z,16.44
2017-05-19T11:28:33.341Z,16.42
2017-05-19T11:29:33.334Z,16.42
2017-05-19T11:30:33.292Z,16.33
2017-05-19T11:31:33.280Z,16.32
2017-05-19T11:32:32.944Z,16.29
2017-05-19T11:33:33.235Z,16.3
2017-05-19T11:34:33.215Z,16.22
2017-05-19T11:35:32.890Z,16.18
2017-05-19T11:36:33.173Z,16.11
2017-05-19T11:37:33.149Z,16.11
2017-05-19T11:38:33.135Z,15.99
2017-05-19T11:39:32.807Z,15.98
2017-05-19T11:40:33.087Z,15.93
2017-05-19T11:41:32.762Z,16.01
2017-05-19T11:42:33.051Z,15.93
2017-05-19T11:43:32.738Z,15.95
2017-05-19T11:44:33.010Z,15.96
2017-05-19T11:45:32.986Z,15.91
2017-05-19T11:46:33.269Z,15.93
2017-05-19T11:47:32.647Z,15.93
2017-05-19T11:48:32.935Z,15.84
2017-05-19T11:49:32.920Z,15.93
2017-05-19T11:50:32.888Z,15.92
2017-05-19T11:51:32.866Z,15.85
2017-05-19T11:52:32.846Z,15.89
2017-05-19T11:53:32.826Z,15.86
2017-05-19T11:54:32.812Z,15.8
2017-05-19T11:55:32.843Z,15.74
2017-05-19T11:56:32.819Z,15.78
2017-05-19T11:57:32.751Z,15.74
2017-05-19T11:58:32.731Z,15.74
2017-05-19T11:59:32.707Z,15.77
2017-05-19T12:00:32.683Z,15.74
2017-05-19T12:01:32.659Z,15.71
2017-05-19T12:02:32.641Z,15.77
2017-05-19T12:03:32.624Z,15.67
2017-05-19T12:04:32.600Z,15.73
2017-05-19T12:05:32.585Z,15.77
2017-05-19T12:06:32.551Z,15.8
2017-05-19T12:07:32.534Z,15.74
2017-05-19T12:08:32.569Z,15.7
2017-05-19T12:09:32.503Z,15.67
2017-05-19T12:10:32.479Z,15.71
2017-05-19T12:11:32.456Z,15.6
2017-05-19T12:12:32.431Z,15.64
2017-05-19T12:13:32.418Z,15.56
2017-05-19T12:14:32.395Z,15.53
2017-05-19T12:15:32.375Z,15.56
2017-05-19T12:16:32.352Z,15.53
2017-05-19T12:17:32.327Z,15.64
2017-05-19T12:18:32.311Z,15.67
2017-05-19T12:19:32.302Z,15.71
2017-05-19T12:20:32.269Z,15.74
2017-05-19T12:21:32.250Z,15.71
2017-05-19T12:22:32.226Z,15.6
2017-05-19T12:23:32.204Z,15.56
2017-05-19T12:24:32.195Z,15.53
2017-05-19T12:25:32.173Z,15.48
2017-05-19T12:26:31.850Z,15.46
2017-05-19T12:27:32.135Z,15.4
2017-05-19T12:28:32.114Z,15.35
2017-05-19T12:29:32.139Z,15.35
2017-05-19T12:30:32.065Z,15.38
2017-05-19T12:31:32.108Z,15.34
2017-05-19T12:32:31.723Z,15.34
2017-05-19T12:33:32.020Z,15.34
2017-05-19T12:34:31.989Z,15.31
2017-05-19T12:35:31.688Z,15.31
2017-05-19T12:36:31.652Z,15.23
2017-05-19T12:37:31.933Z,15.2
2017-05-19T12:38:31.918Z,15.2
2017-05-19T12:39:31.895Z,15.18
2017-05-19T12:40:31.859Z,15.15
2017-05-19T12:41:31.562Z,15.2
2017-05-19T12:42:31.824Z,15.12
2017-05-19T12:43:31.808Z,15.13
2017-05-19T12:44:31.783Z,15.22
2017-05-19T12:45:31.772Z,15.16
2017-05-19T12:46:31.744Z,15.12
2017-05-19T12:47:31.720Z,15.11
2017-05-19T12:48:31.698Z,15.13
2017-05-19T12:49:31.670Z,15.05
2017-05-19T12:50:31.704Z,15.2
2017-05-19T12:51:31.668Z,15.13
2017-05-19T12:52:31.670Z,15.16
2017-05-19T12:53:31.598Z,15.18
2017-05-19T12:54:31.576Z,15.19
2017-05-19T12:55:31.561Z,15.22